createdAt,value
2017-02-09T00:01:00.692Z,-2.9
2017-02-09T00:02:06.303Z,-3
2017-02-09T00:03:12.326Z,-3
2017-02-09T00:04:18.475Z,-3.1
2017-02-09T00:05:23.571Z,-3.1
2017-02-09T00:06:29.431Z,-3.2
2017-02-09T00:07:35.447Z,-3.1
2017-02-09T00:08:41.470Z,-3.1
2017-02-09T00:09:47.489Z,-3.2
2017-02-09T00:10:53.511Z,-3.2
2017-02-09T00:11:59.531Z,-3.1
2017-02-09T00:13:05.562Z,-3
2017-02-09T00:14:11.579Z,-3
2017-02-09T00:15:17.601Z,-3
2017-02-09T00:16:23.623Z,-2.9
2017-02-09T00:17:29.653Z,-2.9
2017-02-09T00:18:34.578Z,-3
2017-02-09T00:19:39.943Z,-3
2017-02-09T00:20:44.888Z,-3
2017-02-09T00:21:50.249Z,-3
2017-02-09T00:22:54.515Z,-3
2017-02-09T00:24:00.543Z,-3
2017-02-09T00:25:05.913Z,-3
2017-02-09T00:26:11.936Z,-3
2017-02-09T00:27:17.958Z,-2.9
2017-02-09T00:28:23.986Z,-2.9
2017-02-09T00:29:30.013Z,-2.8
2017-02-09T00:30:36.042Z,-2.9
2017-02-09T00:31:42.069Z,-2.9
2017-02-09T00:32:48.092Z,-2.9
2017-02-09T00:33:54.121Z,-2.8
2017-02-09T00:34:59.500Z,-2.9
2017-02-09T00:36:05.522Z,-2.9
2017-02-09T00:37:10.887Z,-2.8
2017-02-09T00:38:15.816Z,-2.8
2017-02-09T00:39:21.185Z,-2.8
2017-02-09T00:40:27.205Z,-2.7
2017-02-09T00:41:33.228Z,-2.9
2017-02-09T00:42:39.261Z,-2.8
2017-02-09T00:43:45.290Z,-2.8
2017-02-09T00:44:51.320Z,-2.7
2017-02-09T00:45:57.352Z,-2.7
2017-02-09T00:47:03.378Z,-2.7
2017-02-09T00:48:09.399Z,-2.8
2017-02-09T00:49:14.338Z,-2.8
2017-02-09T00:50:20.359Z,-2.9
2017-02-09T00:51:26.392Z,-2.8
2017-02-09T00:52:32.408Z,-2.8
2017-02-09T00:53:38.425Z,-3
2017-02-09T00:54:44.444Z,-3
2017-02-09T00:55:50.468Z,-3
2017-02-09T00:56:56.489Z,-3
2017-02-09T00:58:02.518Z,-3
2017-02-09T00:59:08.539Z,-3.1
2017-02-09T01:00:14.566Z,-3.1
2017-02-09T01:01:18.829Z,-3.1
2017-02-09T01:02:24.859Z,-3.1
2017-02-09T01:03:30.875Z,-3
2017-02-09T01:04:36.897Z,-3
2017-02-09T01:05:42.921Z,-2.9
2017-02-09T01:06:47.845Z,-2.9
2017-02-09T01:07:53.208Z,-2.9
2017-02-09T01:08:59.230Z,-2.9
2017-02-09T01:10:04.154Z,-2.9
2017-02-09T01:11:09.516Z,-2.9
2017-02-09T01:12:14.446Z,-3
2017-02-09T01:13:19.812Z,-3
2017-02-09T01:14:25.848Z,-2.9
2017-02-09T01:15:31.874Z,-2.9
2017-02-09T01:16:37.898Z,-2.9
2017-02-09T01:17:43.923Z,-2.9
2017-02-09T01:18:49.941Z,-2.9
2017-02-09T01:19:56.081Z,-2.9
2017-02-09T01:21:01.007Z,-3
2017-02-09T01:22:07.039Z,-2.9
2017-02-09T01:23:13.063Z,-2.9
2017-02-09T01:24:19.089Z,-2.9
2017-02-09T01:25:24.455Z,-3.1
2017-02-09T01:26:29.814Z,-3
2017-02-09T01:27:35.172Z,-3
2017-02-09T01:28:41.200Z,-3
2017-02-09T01:29:47.223Z,-2.9
2017-02-09T01:30:53.252Z,-2.9
2017-02-09T01:31:59.269Z,-2.9
2017-02-09T01:33:04.632Z,-2.9
2017-02-09T01:34:10.660Z,-2.9
2017-02-09T01:35:16.687Z,-2.9
2017-02-09T01:36:22.718Z,-2.9
2017-02-09T01:37:28.737Z,-2.9
2017-02-09T01:38:34.764Z,-2.9
2017-02-09T01:39:40.789Z,-2.8
2017-02-09T01:40:46.813Z,-2.8
2017-02-09T01:41:52.845Z,-2.8
2017-02-09T01:42:58.862Z,-2.7
2017-02-09T01:44:04.879Z,-2.7
2017-02-09T01:45:10.905Z,-2.8
2017-02-09T01:46:16.926Z,-2.7
2017-02-09T01:47:22.954Z,-2.7
2017-02-09T01:48:28.987Z,-2.8
2017-02-09T01:49:35.019Z,-2.7
2017-02-09T01:50:41.038Z,-2.6
2017-02-09T01:51:47.055Z,-2.6
2017-02-09T01:52:53.081Z,-2.6
2017-02-09T01:53:59.106Z,-2.8
2017-02-09T01:55:04.470Z,-2.8
2017-02-09T01:56:10.491Z,-2.8
2017-02-09T01:57:15.423Z,-2.7
2017-02-09T01:58:21.446Z,-2.7
2017-02-09T01:59:27.472Z,-2.7
2017-02-09T02:00:33.494Z,-2.8
2017-02-09T02:01:39.521Z,-2.7
2017-02-09T02:02:45.543Z,-2.7
2017-02-09T02:03:50.902Z,-2.7
2017-02-09T02:04:56.929Z,-2.7
2017-02-09T02:06:02.957Z,-2.7
2017-02-09T02:07:08.979Z,-2.7
2017-02-09T02:08:14.996Z,-2.7
2017-02-09T02:09:21.017Z,-2.7
2017-02-09T02:10:26.382Z,-2.8
2017-02-09T02:11:32.400Z,-2.7
2017-02-09T02:12:37.763Z,-2.7
2017-02-09T02:13:43.786Z,-2.8
2017-02-09T02:14:49.812Z,-2.7
2017-02-09T02:15:55.834Z,-2.7
2017-02-09T02:17:01.858Z,-2.8
2017-02-09T02:18:07.879Z,-2.7
2017-02-09T02:19:13.251Z,-2.7
2017-02-09T02:20:19.268Z,-2.7
2017-02-09T02:21:25.286Z,-2.7
2017-02-09T02:22:31.305Z,-2.9
2017-02-09T02:23:37.326Z,-2.8
2017-02-09T02:24:43.347Z,-2.8
2017-02-09T02:25:49.374Z,-2.8
2017-02-09T02:26:54.295Z,-2.8
2017-02-09T02:27:59.687Z,-2.9
2017-02-09T02:29:05.019Z,-2.8
2017-02-09T02:30:09.940Z,-2.8
2017-02-09T02:31:15.955Z,-2.7
2017-02-09T02:32:21.982Z,-2.8
2017-02-09T02:33:28.012Z,-2.7
2017-02-09T02:34:32.937Z,-2.7
2017-02-09T02:35:38.964Z,-2.8
2017-02-09T02:36:44.990Z,-2.8
2017-02-09T02:37:51.020Z,-2.8
2017-02-09T02:38:57.041Z,-2.8
2017-02-09T02:40:03.068Z,-2.8
2017-02-09T02:41:09.096Z,-2.8
2017-02-09T02:42:14.022Z,-2.9
2017-02-09T02:43:20.040Z,-2.9
2017-02-09T02:44:26.073Z,-2.8
2017-02-09T02:45:32.091Z,-2.9
2017-02-09T02:46:38.117Z,-2.8
2017-02-09T02:47:44.168Z,-2.8
2017-02-09T02:48:50.188Z,-2.8
2017-02-09T02:49:56.210Z,-2.8
2017-02-09T02:51:02.232Z,-2.8
2017-02-09T02:52:08.254Z,-2.9
2017-02-09T02:53:14.282Z,-2.9
2017-02-09T02:54:20.314Z,-2.9
2017-02-09T02:55:26.329Z,-2.9
2017-02-09T02:56:32.351Z,-2.9
2017-02-09T02:57:38.368Z,-3
2017-02-09T02:58:43.737Z,-3
2017-02-09T02:59:49.764Z,-3
2017-02-09T03:00:55.795Z,-3
2017-02-09T03:02:01.820Z,-3
2017-02-09T03:03:07.838Z,-2.9
2017-02-09T03:04:13.197Z,-2.9
2017-02-09T03:05:19.228Z,-2.9
2017-02-09T03:06:25.249Z,-2.9
2017-02-09T03:07:31.275Z,-2.9
2017-02-09T03:08:37.305Z,-2.9
2017-02-09T03:09:43.330Z,-2.9
2017-02-09T03:10:48.251Z,-2.9
2017-02-09T03:11:53.606Z,-2.9
2017-02-09T03:12:59.634Z,-2.9
2017-02-09T03:14:04.999Z,-2.9
2017-02-09T03:15:11.024Z,-2.9
2017-02-09T03:16:17.045Z,-2.9
2017-02-09T03:17:23.065Z,-2.8
2017-02-09T03:18:28.431Z,-2.9
2017-02-09T03:19:33.352Z,-2.9
2017-02-09T03:20:38.703Z,-2.9
2017-02-09T03:21:44.724Z,-2.9
2017-02-09T03:22:50.748Z,-2.8
2017-02-09T03:23:56.777Z,-2.8
2017-02-09T03:25:02.795Z,-2.8
2017-02-09T03:26:08.152Z,-2.7
2017-02-09T03:27:13.071Z,-2.7
2017-02-09T03:28:19.090Z,-2.7
2017-02-09T03:29:25.109Z,-2.7
2017-02-09T03:30:31.135Z,-2.7
2017-02-09T03:31:37.153Z,-2.7
2017-02-09T03:32:43.181Z,-2.6
2017-02-09T03:33:49.208Z,-2.6
2017-02-09T03:34:55.235Z,-2.7
2017-02-09T03:36:01.254Z,-2.6
2017-02-09T03:37:07.279Z,-2.6
2017-02-09T03:38:13.303Z,-2.6
2017-02-09T03:39:19.325Z,-2.6
2017-02-09T03:40:25.345Z,-2.6
2017-02-09T03:41:31.369Z,-2.6
2017-02-09T03:42:37.379Z,-2.6
2017-02-09T03:43:43.397Z,-2.6
2017-02-09T03:44:49.428Z,-2.7
2017-02-09T03:45:54.130Z,-2.7
2017-02-09T03:46:59.044Z,-2.7
2017-02-09T03:48:05.061Z,-2.6
2017-02-09T03:49:11.083Z,-2.6
2017-02-09T03:50:17.102Z,-2.6
2017-02-09T03:51:23.123Z,-2.7
2017-02-09T03:52:28.054Z,-2.7
2017-02-09T03:53:33.419Z,-2.7
2017-02-09T03:54:38.779Z,-2.7
2017-02-09T03:55:44.793Z,-2.7
2017-02-09T03:56:50.815Z,-2.7
2017-02-09T03:57:56.832Z,-2.7
2017-02-09T03:59:02.855Z,-2.7
2017-02-09T04:00:08.883Z,-2.6
2017-02-09T04:01:14.902Z,-2.6
2017-02-09T04:02:20.928Z,-2.7
2017-02-09T04:03:26.953Z,-2.7
2017-02-09T04:04:32.973Z,-2.7
2017-02-09T04:05:38.987Z,-2.7
2017-02-09T04:06:45.016Z,-2.7
2017-02-09T04:07:50.380Z,-2.7
2017-02-09T04:08:56.401Z,-2.7
2017-02-09T04:10:01.312Z,-2.6
2017-02-09T04:11:07.339Z,-2.6
2017-02-09T04:12:12.691Z,-2.7
2017-02-09T04:13:16.944Z,-2.8
2017-02-09T04:14:22.964Z,-2.7
2017-02-09T04:15:28.995Z,-2.7
2017-02-09T04:16:35.019Z,-2.8
2017-02-09T04:17:41.043Z,-2.8
2017-02-09T04:18:47.063Z,-2.8
2017-02-09T04:19:51.979Z,-2.8
2017-02-09T04:20:57.998Z,-2.8
2017-02-09T04:22:02.928Z,-2.9
2017-02-09T04:23:08.949Z,-2.9
2017-02-09T04:24:14.971Z,-2.9
2017-02-09T04:25:20.328Z,-2.8
2017-02-09T04:26:26.347Z,-2.9
2017-02-09T04:27:32.371Z,-2.9
2017-02-09T04:28:38.391Z,-2.9
2017-02-09T04:29:44.407Z,-3
2017-02-09T04:30:50.428Z,-2.9
2017-02-09T04:31:56.454Z,-2.9
2017-02-09T04:33:01.814Z,-2.9
2017-02-09T04:34:07.835Z,-2.9
2017-02-09T04:35:13.849Z,-2.9
2017-02-09T04:36:19.869Z,-2.9
2017-02-09T04:37:25.238Z,-2.9
2017-02-09T04:38:31.265Z,-2.9
2017-02-09T04:39:37.280Z,-3
2017-02-09T04:40:43.303Z,-3
2017-02-09T04:41:49.329Z,-3
2017-02-09T04:42:55.351Z,-2.9
2017-02-09T04:44:01.371Z,-3
2017-02-09T04:45:07.387Z,-3
2017-02-09T04:46:13.410Z,-3
2017-02-09T04:47:18.330Z,-3
2017-02-09T04:48:23.686Z,-3
2017-02-09T04:49:29.706Z,-3
2017-02-09T04:50:35.732Z,-3.1
2017-02-09T04:51:41.751Z,-3.1
2017-02-09T04:52:47.105Z,-3.2
2017-02-09T04:53:53.130Z,-3.2
2017-02-09T04:54:58.488Z,-3.2
2017-02-09T04:56:04.509Z,-3.2
2017-02-09T04:57:10.534Z,-3.3
2017-02-09T04:58:16.559Z,-3.3
2017-02-09T04:59:22.584Z,-3.3
2017-02-09T05:00:28.606Z,-3.3
2017-02-09T05:01:33.528Z,-3.3
2017-02-09T05:02:39.554Z,-3.3
2017-02-09T05:03:44.482Z,-3.3
2017-02-09T05:04:49.845Z,-3.3
2017-02-09T05:05:55.865Z,-3.5
2017-02-09T05:07:01.890Z,-3.5
2017-02-09T05:08:06.808Z,-3.5
2017-02-09T05:09:11.729Z,-3.5
2017-02-09T05:10:17.743Z,-3.5
2017-02-09T05:11:23.758Z,-3.4
2017-02-09T05:12:28.017Z,-3.4
2017-02-09T05:13:34.044Z,-3.4
2017-02-09T05:14:40.060Z,-3.5
2017-02-09T05:15:46.077Z,-3.5
2017-02-09T05:16:51.441Z,-3.5
2017-02-09T05:17:56.796Z,-3.6
2017-02-09T05:19:02.817Z,-3.5
2017-02-09T05:20:07.740Z,-3.4
2017-02-09T05:21:13.763Z,-3.4
2017-02-09T05:22:19.782Z,-3.4
2017-02-09T05:23:25.816Z,-3.5
2017-02-09T05:24:31.843Z,-3.6
2017-02-09T05:25:37.868Z,-3.6
2017-02-09T05:26:43.883Z,-3.7
2017-02-09T05:27:49.900Z,-3.7
2017-02-09T05:28:55.919Z,-3.7
2017-02-09T05:30:01.279Z,-3.7
2017-02-09T05:31:06.641Z,-3.7
2017-02-09T05:32:12.668Z,-3.7
2017-02-09T05:33:18.679Z,-3.7
2017-02-09T05:34:24.708Z,-3.6
2017-02-09T05:35:30.730Z,-3.6
2017-02-09T05:36:36.751Z,-3.5
2017-02-09T05:37:42.767Z,-3.5
2017-02-09T05:38:47.690Z,-3.4
2017-02-09T05:39:53.707Z,-3.4
2017-02-09T05:40:59.733Z,-3.3
2017-02-09T05:42:05.752Z,-3.3
2017-02-09T05:43:11.779Z,-3.4
2017-02-09T05:44:16.699Z,-3.4
2017-02-09T05:45:22.059Z,-3.3
2017-02-09T05:46:28.089Z,-3.3
2017-02-09T05:47:34.108Z,-3.3
2017-02-09T05:48:40.129Z,-3.3
2017-02-09T05:49:46.153Z,-3.3
2017-02-09T05:50:52.167Z,-3.3
2017-02-09T05:51:58.188Z,-3.2
2017-02-09T05:53:04.210Z,-3.2
2017-02-09T05:54:10.232Z,-3.2
2017-02-09T05:55:16.259Z,-3.2
2017-02-09T05:56:22.280Z,-3.2
2017-02-09T05:57:27.640Z,-3.2
2017-02-09T05:59:41.249Z,-3.2
2017-02-09T06:00:46.169Z,-3.2
2017-02-09T06:01:52.191Z,-3.2
2017-02-09T06:02:57.547Z,-3.3
2017-02-09T06:04:03.573Z,-3.2
2017-02-09T06:05:08.496Z,-3.2
2017-02-09T06:06:14.517Z,-3.2
2017-02-09T06:07:20.541Z,-3.2
2017-02-09T06:08:26.560Z,-3.1
2017-02-09T06:09:32.580Z,-3.2
2017-02-09T06:10:38.603Z,-3.2
2017-02-09T06:11:44.620Z,-3.2
2017-02-09T06:12:50.646Z,-3.2
2017-02-09T06:13:56.678Z,-3.2
2017-02-09T06:15:02.694Z,-3.2
2017-02-09T06:16:08.056Z,-3.1
2017-02-09T06:17:12.976Z,-3.1
2017-02-09T06:18:18.995Z,-3.1
2017-02-09T06:19:25.014Z,-3.1
2017-02-09T06:20:31.028Z,-3.1
2017-02-09T06:21:37.046Z,-3.2
2017-02-09T06:22:41.744Z,-3.1
2017-02-09T06:23:47.763Z,-3.1
2017-02-09T06:24:53.784Z,-3.1
2017-02-09T06:25:59.167Z,-3.1
2017-02-09T06:27:04.499Z,-3.1
2017-02-09T06:28:10.519Z,-3.1
2017-02-09T06:29:16.537Z,-3.1
2017-02-09T06:30:22.564Z,-3.1
2017-02-09T06:31:27.924Z,-3.1
2017-02-09T06:32:33.944Z,-3.1
2017-02-09T06:33:39.307Z,-3.1
2017-02-09T06:34:45.366Z,-3.1
2017-02-09T06:35:51.345Z,-3.2
2017-02-09T06:36:56.264Z,-3.2
2017-02-09T06:38:02.281Z,-3.1
2017-02-09T06:39:08.305Z,-3.1
2017-02-09T06:40:14.327Z,-3.1
2017-02-09T06:41:20.344Z,-3.1
2017-02-09T06:42:26.369Z,-3.1
2017-02-09T06:43:32.389Z,-3.1
2017-02-09T06:44:38.408Z,-3.1
2017-02-09T06:45:43.764Z,-3
2017-02-09T06:46:49.129Z,-3
2017-02-09T06:47:55.150Z,-3
2017-02-09T06:49:01.166Z,-3
2017-02-09T06:50:07.186Z,-3
2017-02-09T06:51:13.210Z,-3
2017-02-09T06:52:19.222Z,-3
2017-02-09T06:53:25.247Z,-3.1
2017-02-09T06:54:30.604Z,-3.1
2017-02-09T06:55:35.967Z,-3.1
2017-02-09T06:56:41.987Z,-3.1
2017-02-09T06:57:48.004Z,-3.1
2017-02-09T06:58:54.021Z,-3.1
2017-02-09T07:00:00.045Z,-3
2017-02-09T07:01:06.074Z,-3.1
2017-02-09T07:02:11.433Z,-3
2017-02-09T07:03:16.787Z,-3.1
2017-02-09T07:04:22.809Z,-3
2017-02-09T07:05:28.833Z,-3
2017-02-09T07:06:34.852Z,-3
2017-02-09T07:07:40.203Z,-3.1
2017-02-09T07:08:46.226Z,-3.1
2017-02-09T07:09:52.250Z,-3
2017-02-09T07:10:58.269Z,-3
2017-02-09T07:12:04.290Z,-3
2017-02-09T07:13:10.310Z,-3
2017-02-09T07:14:15.231Z,-2.9
2017-02-09T07:15:21.253Z,-3
2017-02-09T07:16:27.278Z,-3
2017-02-09T07:17:33.300Z,-2.9
2017-02-09T07:18:38.217Z,-3
2017-02-09T07:19:44.236Z,-3
2017-02-09T07:20:50.259Z,-3
2017-02-09T07:21:56.288Z,-3
2017-02-09T07:23:02.306Z,-3.1
2017-02-09T07:24:08.323Z,-3
2017-02-09T07:25:13.685Z,-3
2017-02-09T07:26:19.070Z,-3
2017-02-09T07:27:24.402Z,-2.9
2017-02-09T07:28:30.422Z,-2.9
2017-02-09T07:29:36.442Z,-2.9
2017-02-09T07:30:42.461Z,-3
2017-02-09T07:31:48.486Z,-3
2017-02-09T07:32:54.506Z,-3
2017-02-09T07:33:59.870Z,-3
2017-02-09T07:35:05.893Z,-2.9
2017-02-09T07:36:11.251Z,-2.9
2017-02-09T07:37:17.273Z,-2.8
2017-02-09T07:38:23.298Z,-2.8
2017-02-09T07:39:29.321Z,-2.8
2017-02-09T07:40:35.343Z,-2.8
2017-02-09T07:41:41.367Z,-2.8
2017-02-09T07:42:46.293Z,-2.7
2017-02-09T07:43:52.316Z,-2.7
2017-02-09T07:44:58.334Z,-2.6
2017-02-09T07:46:04.356Z,-2.6
2017-02-09T07:47:09.712Z,-2.5
2017-02-09T07:48:15.733Z,-2.5
2017-02-09T07:49:21.091Z,-2.6
2017-02-09T07:50:26.443Z,-2.6
2017-02-09T07:51:32.460Z,-2.6
2017-02-09T07:52:38.478Z,-2.6
2017-02-09T07:53:43.846Z,-2.5
2017-02-09T07:54:49.868Z,-2.5
2017-02-09T07:55:55.889Z,-2.5
2017-02-09T07:57:01.244Z,-2.4
2017-02-09T07:58:07.268Z,-2.6
2017-02-09T07:59:13.290Z,-2.4
2017-02-09T08:00:19.308Z,-2.4
2017-02-09T08:01:25.323Z,-2.4
2017-02-09T08:02:31.344Z,-2.4
2017-02-09T08:03:37.377Z,-2.5
2017-02-09T08:04:43.523Z,-2.5
2017-02-09T08:05:49.612Z,-2.6
2017-02-09T08:06:56.844Z,-2.5
2017-02-09T08:08:03.550Z,-2.5
2017-02-09T08:09:10.402Z,-2.5
2017-02-09T08:10:17.473Z,-2.4
2017-02-09T08:11:24.933Z,-2.4
2017-02-09T08:12:32.054Z,-2.3
2017-02-09T08:13:38.380Z,-2.3
2017-02-09T08:14:44.142Z,-2.3
2017-02-09T08:15:50.021Z,-2.2
2017-02-09T08:16:56.427Z,-2.2
2017-02-09T08:18:03.190Z,-2.1
2017-02-09T08:19:09.388Z,-2.1
2017-02-09T08:20:15.489Z,-2.1
2017-02-09T08:21:21.609Z,-2
2017-02-09T08:22:27.895Z,-2
2017-02-09T08:23:34.377Z,-2
2017-02-09T08:24:40.409Z,-2
2017-02-09T08:25:46.531Z,-2
2017-02-09T08:26:52.673Z,-2
2017-02-09T08:27:58.783Z,-1.9
2017-02-09T08:29:05.021Z,-1.8
2017-02-09T08:30:11.246Z,-1.9
2017-02-09T08:31:17.446Z,-1.9
2017-02-09T08:32:23.786Z,-2
2017-02-09T08:33:29.799Z,-1.9
2017-02-09T08:34:33.768Z,-1.9
2017-02-09T08:35:39.867Z,-1.8
2017-02-09T08:36:45.230Z,-1.8
2017-02-09T08:37:51.358Z,-1.9
2017-02-09T08:38:57.454Z,-1.9
2017-02-09T08:40:02.446Z,-1.8
2017-02-09T08:41:08.431Z,-1.8
2017-02-09T08:42:14.467Z,-1.9
2017-02-09T08:43:20.497Z,-1.9
2017-02-09T08:44:26.523Z,-1.9
2017-02-09T08:45:31.893Z,-1.9
2017-02-09T08:46:36.807Z,-1.9
2017-02-09T08:47:42.851Z,-1.8
2017-02-09T08:48:48.926Z,-1.9
2017-02-09T08:49:55.041Z,-2
2017-02-09T08:51:01.019Z,-1.9
2017-02-09T08:52:07.037Z,-1.8
2017-02-09T08:53:13.071Z,-1.9
2017-02-09T08:54:19.103Z,-1.8
2017-02-09T08:55:25.116Z,-1.7
2017-02-09T08:56:31.317Z,-1.8
2017-02-09T08:57:37.330Z,-1.8
2017-02-09T08:58:43.355Z,-1.7
2017-02-09T08:59:49.424Z,-1.8
2017-02-09T09:00:54.355Z,-1.8
2017-02-09T09:02:00.367Z,-1.7
2017-02-09T09:03:06.382Z,-1.7
2017-02-09T09:04:12.404Z,-1.8
2017-02-09T09:05:18.428Z,-1.7
2017-02-09T09:06:24.461Z,-1.8
2017-02-09T09:07:30.493Z,-1.8
2017-02-09T09:08:36.499Z,-1.8
2017-02-09T09:09:42.517Z,-1.7
2017-02-09T09:10:48.542Z,-1.8
2017-02-09T09:11:54.563Z,-1.9
2017-02-09T09:13:00.586Z,-1.8
2017-02-09T09:14:06.604Z,-1.8
2017-02-09T09:15:12.213Z,-1.7
2017-02-09T09:16:16.967Z,-1.7
2017-02-09T09:17:22.998Z,-1.6
2017-02-09T09:18:29.008Z,-1.7
2017-02-09T09:19:34.382Z,-1.6
2017-02-09T09:20:40.399Z,-1.6
2017-02-09T09:21:46.456Z,-1.6
2017-02-09T09:22:51.921Z,-1.5
2017-02-09T09:23:58.098Z,-1.3
2017-02-09T09:25:04.555Z,-1.4
2017-02-09T09:26:10.519Z,-1.3
2017-02-09T09:27:15.963Z,-1.2
2017-02-09T09:28:22.143Z,-1.3
2017-02-09T09:29:28.215Z,-1.4
2017-02-09T09:30:34.341Z,-1.3
2017-02-09T09:31:40.531Z,-1.3
2017-02-09T09:32:46.609Z,-1.3
2017-02-09T09:33:52.979Z,-1.2
2017-02-09T09:35:01.343Z,-1.1
2017-02-09T09:36:06.219Z,-1.1
2017-02-09T09:37:11.874Z,-0.9
2017-02-09T09:38:18.749Z,-0.8
2017-02-09T09:39:24.733Z,-0.7
2017-02-09T09:40:31.222Z,-0.7
2017-02-09T09:41:37.886Z,-0.7
2017-02-09T09:42:45.280Z,-0.7
2017-02-09T09:43:51.737Z,-0.7
2017-02-09T09:44:56.623Z,-0.8
2017-02-09T09:46:03.330Z,-0.9
2017-02-09T09:47:09.638Z,-0.9
2017-02-09T09:48:15.674Z,-1
2017-02-09T09:49:21.791Z,-1
2017-02-09T09:50:27.998Z,-1
2017-02-09T09:51:34.439Z,-1
2017-02-09T09:52:40.562Z,-1.1
2017-02-09T09:53:46.662Z,-1
2017-02-09T09:54:52.663Z,-0.9
2017-02-09T09:55:58.681Z,-0.9
2017-02-09T09:57:04.700Z,-0.9
2017-02-09T09:58:10.730Z,-1
2017-02-09T09:59:16.745Z,-0.9
2017-02-09T10:00:22.773Z,-0.9
2017-02-09T10:01:28.796Z,-0.8
2017-02-09T10:02:34.816Z,-0.8
2017-02-09T10:03:40.829Z,-0.9
2017-02-09T10:04:46.858Z,-0.9
2017-02-09T10:05:52.878Z,-1
2017-02-09T10:06:58.893Z,-1
2017-02-09T10:08:04.914Z,-1
2017-02-09T10:09:10.931Z,-0.9
2017-02-09T10:10:16.952Z,-1
2017-02-09T10:11:21.871Z,-1
2017-02-09T10:12:27.895Z,-0.9
2017-02-09T10:13:33.917Z,-0.9
2017-02-09T10:14:39.939Z,-0.9
2017-02-09T10:15:45.957Z,-0.9
2017-02-09T10:16:51.318Z,-0.8
2017-02-09T10:17:57.346Z,-0.8
2017-02-09T10:19:03.364Z,-0.7
2017-02-09T10:20:09.416Z,-0.6
2017-02-09T10:21:15.402Z,-0.6
2017-02-09T10:22:20.758Z,-0.8
2017-02-09T10:23:26.782Z,-0.8
2017-02-09T10:24:31.698Z,-0.7
2017-02-09T10:25:37.063Z,-0.7
2017-02-09T10:26:43.085Z,-0.8
2017-02-09T10:27:49.107Z,-0.7
2017-02-09T10:28:55.129Z,-0.6
2017-02-09T10:30:01.150Z,-0.6
2017-02-09T10:31:07.170Z,-0.7
2017-02-09T10:32:13.188Z,-0.9
2017-02-09T10:33:19.216Z,-0.7
2017-02-09T10:34:24.570Z,-0.7
2017-02-09T10:35:30.591Z,-0.6
2017-02-09T10:36:35.952Z,-0.5
2017-02-09T10:37:41.979Z,-0.5
2017-02-09T10:38:48.001Z,-0.5
2017-02-09T10:39:52.917Z,-0.5
2017-02-09T10:40:58.945Z,-0.5
2017-02-09T10:42:04.964Z,-0.6
2017-02-09T10:43:10.984Z,-0.4
2017-02-09T10:44:17.011Z,-0.4
2017-02-09T10:45:23.028Z,-0.4
2017-02-09T10:46:29.046Z,-0.4
2017-02-09T10:47:34.403Z,-0.6
2017-02-09T10:48:39.762Z,-0.6
2017-02-09T10:49:45.785Z,-0.5
2017-02-09T10:50:51.806Z,-0.5
2017-02-09T10:51:57.833Z,-0.4
2017-02-09T10:53:03.852Z,-0.4
2017-02-09T10:54:09.882Z,-0.4
2017-02-09T10:55:15.912Z,-0.4
2017-02-09T10:56:21.958Z,-0.4
2017-02-09T10:57:27.975Z,-0.5
2017-02-09T10:58:34.007Z,-0.4
2017-02-09T10:59:40.042Z,-0.4
2017-02-09T11:00:46.059Z,-0.4
2017-02-09T11:01:50.995Z,-0.3
2017-02-09T11:02:57.003Z,-0.3
2017-02-09T11:04:01.928Z,-0.5
2017-02-09T11:05:07.279Z,-0.4
2017-02-09T11:06:13.309Z,-0.4
2017-02-09T11:07:19.336Z,-0.4
2017-02-09T11:08:25.355Z,-0.5
2017-02-09T11:09:31.378Z,-0.6
2017-02-09T11:10:37.404Z,-0.5
2017-02-09T11:11:43.413Z,-0.6
2017-02-09T11:12:49.431Z,-0.5
2017-02-09T11:13:55.447Z,-0.4
2017-02-09T11:15:00.808Z,-0.5
2017-02-09T11:16:06.821Z,-0.5
2017-02-09T11:17:12.841Z,-0.5
2017-02-09T11:18:18.858Z,-0.5
2017-02-09T11:19:24.215Z,-0.4
2017-02-09T11:20:30.231Z,-0.2
2017-02-09T11:21:36.255Z,-0.1
2017-02-09T11:22:41.609Z,-0.2
2017-02-09T11:23:47.624Z,-0.2
2017-02-09T11:24:52.989Z,-0.3
2017-02-09T11:25:59.016Z,-0.3
2017-02-09T11:27:05.035Z,-0.3
2017-02-09T11:28:11.064Z,-0.4
2017-02-09T11:29:17.088Z,-0.3
2017-02-09T11:30:23.110Z,-0.1
2017-02-09T11:31:28.462Z,-0.1
2017-02-09T11:32:33.817Z,-0.2
2017-02-09T11:33:38.077Z,-0.1
2017-02-09T11:34:44.092Z,0
2017-02-09T11:35:50.112Z,0.1
2017-02-09T11:36:56.142Z,0.1
2017-02-09T11:38:01.494Z,0
2017-02-09T11:39:07.502Z,0
2017-02-09T11:40:12.866Z,-0.1
2017-02-09T11:41:17.795Z,-0.1
2017-02-09T11:42:23.814Z,-0.1
2017-02-09T11:43:29.834Z,-0.1
2017-02-09T11:44:35.862Z,-0.1
2017-02-09T11:45:41.876Z,0
2017-02-09T11:46:47.892Z,0.2
2017-02-09T11:47:53.907Z,0.3
2017-02-09T11:48:59.934Z,0.4
2017-02-09T11:50:05.954Z,0.5
2017-02-09T11:51:11.966Z,0.5
2017-02-09T11:52:17.983Z,0.5
2017-02-09T11:53:23.996Z,0.6
2017-02-09T11:54:30.013Z,0.6
2017-02-09T11:55:36.036Z,0.4
2017-02-09T11:56:41.387Z,0.5
2017-02-09T11:57:47.402Z,0.7
2017-02-09T11:58:52.757Z,0.7
2017-02-09T11:59:58.107Z,0.7
2017-02-09T12:01:04.125Z,0.7
2017-02-09T12:02:10.144Z,0.9
2017-02-09T12:03:16.163Z,1.1
2017-02-09T12:04:21.087Z,1
2017-02-09T12:05:27.115Z,1
2017-02-09T12:06:32.462Z,1
2017-02-09T12:07:38.483Z,1.1
2017-02-09T12:08:44.507Z,1.2
2017-02-09T12:09:50.529Z,1.1
2017-02-09T12:10:56.545Z,1.1
2017-02-09T12:12:01.462Z,1
2017-02-09T12:13:07.831Z,1.2
2017-02-09T12:14:11.787Z,1.4
2017-02-09T12:15:17.803Z,1.3
2017-02-09T12:16:23.159Z,1.3
2017-02-09T12:17:29.188Z,1.4
2017-02-09T12:18:35.204Z,1.4
2017-02-09T12:19:41.221Z,1.3
2017-02-09T12:20:47.265Z,1.3
2017-02-09T12:21:53.322Z,1.3
2017-02-09T12:22:59.372Z,1.3
2017-02-09T12:24:03.634Z,1.1
2017-02-09T12:25:09.682Z,1.2
2017-02-09T12:26:15.730Z,1.1
2017-02-09T12:27:21.789Z,1.4
2017-02-09T12:28:27.824Z,1.4
2017-02-09T12:29:33.910Z,1.3
2017-02-09T12:30:39.965Z,1.2
2017-02-09T12:31:46.043Z,1.2
2017-02-09T12:32:52.051Z,1.3
2017-02-09T12:33:57.419Z,1.5
2017-02-09T12:35:03.439Z,1.6
2017-02-09T12:36:09.486Z,1.7
2017-02-09T12:37:15.560Z,1.7
2017-02-09T12:38:21.597Z,1.8
2017-02-09T12:39:27.614Z,1.8
2017-02-09T12:40:33.681Z,1.6
2017-02-09T12:41:39.704Z,1.6
2017-02-09T12:42:45.758Z,1.8
2017-02-09T12:43:51.785Z,1.7
2017-02-09T12:44:57.141Z,1.7
2017-02-09T12:46:03.157Z,1.9
2017-02-09T12:47:08.113Z,2
2017-02-09T12:48:14.129Z,1.8
2017-02-09T12:49:20.164Z,1.9
2017-02-09T12:50:25.068Z,2
2017-02-09T12:51:31.125Z,1.5
2017-02-09T12:52:37.203Z,1.6
2017-02-09T12:53:42.584Z,1.7
2017-02-09T12:54:46.850Z,1.5
2017-02-09T12:55:52.901Z,1.4
2017-02-09T12:56:58.889Z,1.7
2017-02-09T12:58:05.174Z,1.7
2017-02-09T12:59:10.964Z,1.9
2017-02-09T13:00:17.264Z,1.8
2017-02-09T13:01:23.377Z,1.9
2017-02-09T13:02:28.729Z,1.7
2017-02-09T13:03:34.089Z,1.7
2017-02-09T13:04:40.107Z,1.7
2017-02-09T13:05:46.159Z,1.6
2017-02-09T13:06:52.185Z,1.6
2017-02-09T13:07:58.210Z,1.7
2017-02-09T13:09:04.228Z,1.8
2017-02-09T13:10:10.258Z,2.1
2017-02-09T13:11:16.412Z,2.1
2017-02-09T13:12:22.459Z,2.1
2017-02-09T13:13:28.561Z,2.1
2017-02-09T13:14:34.697Z,2.3
2017-02-09T13:15:39.631Z,2.5
2017-02-09T13:16:44.987Z,2.4
2017-02-09T13:17:50.343Z,2.2
2017-02-09T13:18:56.358Z,2.2
2017-02-09T13:20:02.439Z,2.3
2017-02-09T13:21:07.795Z,2.2
2017-02-09T13:22:13.821Z,1.9
2017-02-09T13:23:19.863Z,2.1
2017-02-09T13:24:25.877Z,2.1
2017-02-09T13:25:31.907Z,2.1
2017-02-09T13:26:37.300Z,2.2
2017-02-09T13:27:43.330Z,2
2017-02-09T13:28:49.420Z,2
2017-02-09T13:29:55.431Z,2.1
2017-02-09T13:31:01.451Z,1.8
2017-02-09T13:32:07.472Z,1.6
2017-02-09T13:33:13.503Z,1.8
2017-02-09T13:34:18.859Z,1.8
2017-02-09T13:35:24.909Z,1.8
2017-02-09T13:36:30.929Z,1.9
2017-02-09T13:37:36.941Z,2
2017-02-09T13:38:42.962Z,2
2017-02-09T13:39:49.004Z,1.9
2017-02-09T13:40:55.034Z,2
2017-02-09T13:42:00.391Z,1.9
2017-02-09T13:43:05.796Z,1.9
2017-02-09T13:44:10.708Z,1.7
2017-02-09T13:45:15.636Z,1.5
2017-02-09T13:46:21.691Z,1.6
2017-02-09T13:47:27.725Z,1.7
2017-02-09T13:48:32.664Z,1.8
2017-02-09T13:49:38.686Z,1.9
2017-02-09T13:50:44.704Z,1.8
2017-02-09T13:51:50.725Z,1.9
2017-02-09T13:52:56.735Z,2.2
2017-02-09T13:54:03.117Z,2.3
2017-02-09T13:55:09.194Z,2.5
2017-02-09T13:56:15.171Z,2.5
2017-02-09T13:57:21.269Z,2.7
2017-02-09T13:58:27.292Z,2.4
2017-02-09T13:59:33.428Z,2.6
2017-02-09T14:00:39.328Z,2.5
2017-02-09T14:01:45.353Z,2.5
2017-02-09T14:02:51.369Z,2.8
2017-02-09T14:03:57.383Z,2.9
2017-02-09T14:06:11.006Z,3
2017-02-09T14:07:17.023Z,2.8
2017-02-09T14:08:21.961Z,3
2017-02-09T14:09:27.974Z,2.7
2017-02-09T14:10:33.997Z,2.6
2017-02-09T14:11:40.022Z,2.5
2017-02-09T14:12:46.083Z,2.4
2017-02-09T14:13:51.410Z,2.4
2017-02-09T14:14:57.427Z,2.4
2017-02-09T14:16:02.346Z,2.5
2017-02-09T14:17:07.708Z,2.4
2017-02-09T14:18:13.736Z,2.4
2017-02-09T14:19:19.751Z,2.4
2017-02-09T14:20:25.762Z,2
2017-02-09T14:21:31.783Z,1.8
2017-02-09T14:22:37.813Z,1.6
2017-02-09T14:23:43.866Z,1.8
2017-02-09T14:24:49.885Z,2
2017-02-09T14:25:55.249Z,2
2017-02-09T14:27:00.221Z,1.9
2017-02-09T14:28:06.234Z,2
2017-02-09T14:29:12.293Z,2
2017-02-09T14:30:18.307Z,1.9
2017-02-09T14:31:24.321Z,1.9
2017-02-09T14:32:29.679Z,1.8
2017-02-09T14:33:34.652Z,1.8
2017-02-09T14:34:40.928Z,1.7
2017-02-09T14:35:46.945Z,1.7
2017-02-09T14:36:52.968Z,1.6
2017-02-09T14:37:58.993Z,1.6
2017-02-09T14:39:05.010Z,1.4
2017-02-09T14:40:11.030Z,1.3
2017-02-09T14:41:17.048Z,1.3
2017-02-09T14:42:22.421Z,1.3
2017-02-09T14:43:28.442Z,1.2
2017-02-09T14:44:33.370Z,1.2
2017-02-09T14:45:39.395Z,1.2
2017-02-09T14:46:45.413Z,1
2017-02-09T14:47:50.336Z,1
2017-02-09T14:48:55.688Z,1
2017-02-09T14:50:01.699Z,1
2017-02-09T14:51:07.058Z,0.9
2017-02-09T14:52:13.082Z,0.8
2017-02-09T14:53:19.105Z,0.9
2017-02-09T14:54:25.243Z,0.8